Time;durP1;ratioP1;P1;durP2;ratioP2;P2;SDS_P1;SDS_P2;PMS_P1;PMS_P2;Temp;Humidity;BMP_temperature;BMP_pressure;BME280_temperature;BME280_humidity;BME280_pressure;Samples;Min_cycle;Max_cycle;Signal;HPM_P1;HPM_P2
2022/11/02 00:00:28;;;;;;;7.55;3.78;;;;;;;3.47;72.76;99384.88;5072002;28;20028;-66
2022/11/02 00:02:53;;;;;;;6.63;3.13;;;;;;;3.59;72.77;99391.72;5069510;28;20032;-66
2022/11/02 00:05:23;;;;;;;8.00;3.45;;;;;;;3.60;72.56;99388.31;5084917;28;20091;-66
2022/11/02 00:07:53;;;;;;;4.60;3.22;;;;;;;3.60;71.90;99383.19;5064334;28;20029;-66
2022/11/02 00:10:20;;;;;;;6.97;3.00;;;;;;;3.63;72.46;99384.06;5080840;28;20040;-65
2022/11/02 00:12:47;;;;;;;5.15;3.35;;;;;;;3.63;72.02;99381.50;5072740;28;20025;-65
2022/11/02 00:15:12;;;;;;;5.45;3.15;;;;;;;3.62;72.32;99379.78;5064361;28;20325;-66
2022/11/02 00:17:41;;;;;;;7.35;3.40;;;;;;;3.57;72.65;99370.41;5066379;28;20088;-65
2022/11/02 00:20:09;;;;;;;7.10;4.03;;;;;;;3.64;72.40;99387.47;5084434;28;20031;-66
2022/11/02 00:22:35;;;;;;;8.02;5.30;;;;;;;3.69;72.93;99384.91;5069378;28;20100;-67
2022/11/02 00:25:03;;;;;;;21.05;13.32;;;;;;;3.53;73.31;99364.41;5070601;28;20074;-64
2022/11/02 00:27:30;;;;;;;17.70;13.63;;;;;;;3.65;74.18;99380.63;5078742;28;20097;-65
2022/11/02 00:29:58;;;;;;;20.00;14.38;;;;;;;3.64;73.40;99379.78;5079305;28;20044;-65
2022/11/02 00:32:24;;;;;;;16.55;13.50;;;;;;;3.69;73.04;99379.78;5063633;28;20028;-66
2022/11/02 00:34:50;;;;;;;19.02;14.60;;;;;;;3.69;72.47;99378.09;5083773;28;20028;-65
2022/11/02 00:37:16;;;;;;;25.05;14.77;;;;;;;3.73;72.21;99378.94;5084101;28;20386;-65
2022/11/02 00:39:41;;;;;;;25.63;17.00;;;;;;;3.68;72.70;99368.72;5072930;28;20029;-65
2022/11/02 00:42:08;;;;;;;20.45;13.82;;;;;;;3.70;72.57;99376.38;5068811;28;20020;-65
2022/11/02 00:44:33;;;;;;;21.25;15.20;;;;;;;3.72;72.52;99372.13;5082996;28;20186;-66
2022/11/02 00:46:59;;;;;;;20.67;13.68;;;;;;;3.72;72.82;99372.13;5063931;28;20035;-64
2022/11/02 00:49:24;;;;;;;22.98;15.52;;;;;;;3.70;73.54;99363.59;5080409;28;20020;-66
2022/11/02 00:51:50;;;;;;;21.88;16.00;;;;;;;3.72;73.07;99365.31;5076838;28;20182;-65
2022/11/02 00:54:16;;;;;;;18.00;12.45;;;;;;;3.75;73.16;99359.34;5067785;28;20194;-66
2022/11/02 00:56:41;;;;;;;20.08;12.35;;;;;;;3.67;73.01;99350.78;5065733;28;20028;-66
2022/11/02 00:59:07;;;;;;;19.38;11.60;;;;;;;3.77;73.55;99361.03;5083674;28;20043;-66
2022/11/02 01:01:32;;;;;;;15.82;11.05;;;;;;;3.80;72.57;99367.84;5082730;28;20081;-65
2022/11/02 01:03:58;;;;;;;17.73;10.90;;;;;;;3.74;72.21;99357.63;5070554;28;20033;-66
2022/11/02 01:06:24;;;;;;;17.75;10.80;;;;;;;3.74;72.10;99363.59;5071895;28;20255;-65
2022/11/02 01:08:49;;;;;;;20.10;12.27;;;;;;;3.68;72.18;99365.28;5080122;28;20313;-66
2022/11/02 01:11:17;;;;;;;14.95;10.23;;;;;;;3.60;72.65;99342.22;5063775;28;20051;-65
2022/11/02 01:13:43;;;;;;;17.13;10.18;;;;;;;3.65;72.92;99355.91;5082495;28;20024;-65
2022/11/02 01:16:10;;;;;;;17.15;10.25;;;;;;;3.63;73.35;99358.47;5069332;28;20084;-67
2022/11/02 01:18:36;;;;;;;16.23;10.15;;;;;;;3.59;73.15;99355.88;5063462;28;20029;-65
2022/11/02 01:21:01;;;;;;;13.38;8.82;;;;;;;3.59;74.42;99359.31;5068312;28;20028;-65
2022/11/02 01:23:31;;;;;;;10.30;7.35;;;;;;;3.57;74.09;99343.06;5072348;28;20036;-66
2022/11/02 01:25:56;;;;;;;9.77;7.00;;;;;;;3.63;74.30;99355.91;5083451;28;20128;-65
2022/11/02 01:28:22;;;;;;;9.32;6.45;;;;;;;3.66;74.23;99351.63;5067561;28;20028;-64
2022/11/02 01:30:47;;;;;;;9.20;6.18;;;;;;;3.55;73.68;99351.59;5074374;28;20032;-64
2022/11/02 01:33:13;;;;;;;15.38;6.63;;;;;;;3.61;73.61;99342.22;5080884;28;20035;-64
2022/11/02 01:35:39;;;;;;;9.82;6.35;;;;;;;3.69;73.55;99343.94;5083304;28;20033;-65
2022/11/02 01:38:05;;;;;;;12.50;7.00;;;;;;;3.59;73.39;99349.06;5083897;28;20086;-65
2022/11/02 01:40:35;;;;;;;9.88;5.78;;;;;;;3.70;73.05;99345.66;5066552;28;20025;-66
2022/11/02 01:43:28;;;;;;;8.02;6.20;;;;;;;3.73;73.31;99348.22;5063435;28;20025;-65
2022/11/02 01:46:06;;;;;;;13.48;5.95;;;;;;;3.58;73.51;99323.47;5078242;28;20028;-65
2022/11/02 01:48:35;;;;;;;8.45;4.82;;;;;;;3.66;74.13;99336.25;5078430;28;20347;-66
2022/11/02 01:51:05;;;;;;;7.43;4.15;;;;;;;3.66;73.11;99324.31;5071908;28;20082;-65
2022/11/02 01:53:33;;;;;;;7.05;3.95;;;;;;;3.76;73.25;99335.41;5086083;28;20032;-65
2022/11/02 01:56:00;;;;;;;7.18;3.90;;;;;;;3.78;73.53;99337.13;5067118;28;20041;-65
2022/11/02 01:58:26;;;;;;;6.82;4.18;;;;;;;3.65;73.32;99342.22;5083482;28;20047;-66
2022/11/02 02:00:53;;;;;;;9.30;3.80;;;;;;;3.65;73.47;99345.66;5085577;28;20073;-66
2022/11/02 02:03:20;;;;;;;10.45;4.18;;;;;;;3.67;74.07;99340.53;5080280;28;20036;-66
2022/11/02 02:05:55;;;;;;;9.23;4.10;;;;;;;3.62;73.19;99341.38;5075475;28;20301;-66
2022/11/02 02:08:23;;;;;;;6.88;3.20;;;;;;;3.51;72.50;99325.16;5087178;28;20522;-66
2022/11/02 02:10:50;;;;;;;7.43;3.38;;;;;;;3.62;72.26;99341.38;5070969;28;20031;-65
2022/11/02 02:13:17;;;;;;;4.63;3.22;;;;;;;3.66;72.84;99341.38;5087207;28;20024;-66
2022/11/02 02:16:03;;;;;;;6.45;3.10;;;;;;;3.62;72.95;99343.94;5076377;28;20039;-65
2022/11/02 02:19:00;;;;;;;7.20;3.17;;;;;;;3.53;72.04;99332.84;5065255;28;20371;-65
2022/11/02 02:22:05;;;;;;;5.80;2.85;;;;;;;3.58;72.43;99347.34;5078554;28;20091;-65
2022/11/02 02:25:25;;;;;;;5.85;2.70;;;;;;;3.61;72.54;99344.78;5077959;28;20020;-65
2022/11/02 02:28:24;;;;;;;5.05;2.50;;;;;;;3.50;72.90;99330.28;5053864;28;20029;-65
2022/11/02 02:30:53;;;;;;;7.68;2.95;;;;;;;3.58;72.29;99352.47;5077439;28;20028;-65
2022/11/02 02:33:34;;;;;;;3.70;3.10;;;;;;;3.67;72.49;99354.19;5086576;28;20020;-65
2022/11/02 02:36:33;;;;;;;5.13;2.95;;;;;;;3.54;72.51;99335.41;5085097;28;20043;-66
2022/11/02 02:39:45;;;;;;;7.20;3.60;;;;;;;3.57;72.66;99337.97;5077263;28;20078;-65
2022/11/02 02:42:47;;;;;;;3.83;2.50;;;;;;;3.67;72.76;99349.06;5080758;28;20330;-65
2022/11/02 02:45:30;;;;;;;7.85;2.88;;;;;;;3.61;72.58;99331.16;5044563;28;20037;-65
2022/11/02 02:48:14;;;;;;;6.55;3.05;;;;;;;3.55;71.91;99326.00;5069179;28;20044;-65
2022/11/02 02:50:52;;;;;;;5.43;2.85;;;;;;;3.59;72.82;99336.28;5085442;28;20201;-66
2022/11/02 02:53:30;;;;;;;6.13;2.95;;;;;;;3.53;72.99;99333.69;5066218;28;20440;-66
2022/11/02 02:55:58;;;;;;;6.60;4.03;;;;;;;3.50;72.94;99333.69;5084952;28;20055;-65
2022/11/02 02:58:29;;;;;;;6.32;2.80;;;;;;;3.52;72.64;99339.69;5069533;28;20225;-66
2022/11/02 03:00:56;;;;;;;6.15;3.13;;;;;;;3.51;72.56;99330.28;5076999;28;20020;-66
2022/11/02 03:03:26;;;;;;;8.07;3.17;;;;;;;3.53;72.33;99336.25;5078948;28;20035;-65
2022/11/02 03:06:10;;;;;;;12.63;3.35;;;;;;;3.56;72.74;99338.84;5067886;28;20025;-65
2022/11/02 03:08:38;;;;;;;6.50;3.55;;;;;;;3.53;73.45;99343.91;5085860;28;20356;-66
2022/11/02 03:11:04;;;;;;;5.78;3.55;;;;;;;3.57;73.54;99355.03;5085943;28;20099;-65
2022/11/02 03:13:41;;;;;;;6.15;3.05;;;;;;;3.44;74.42;99360.13;5069865;28;20074;-65
2022/11/02 03:16:44;;;;;;;7.65;3.20;;;;;;;3.50;73.82;99351.59;5066071;28;20039;-67
2022/11/02 03:19:25;;;;;;;5.22;3.00;;;;;;;3.49;73.99;99349.03;5063662;28;20397;-66
2022/11/02 03:22:19;;;;;;;4.65;2.88;;;;;;;3.46;74.61;99352.44;5076307;28;20071;-66
2022/11/02 03:25:13;;;;;;;4.80;3.00;;;;;;;3.51;74.40;99349.91;5075087;28;20043;-67
2022/11/02 03:28:08;;;;;;;7.32;3.42;;;;;;;3.59;74.28;99353.31;5081203;28;20024;-66
2022/11/02 03:30:51;;;;;;;7.72;3.22;;;;;;;3.57;74.00;99342.22;5065493;28;20040;-65
2022/11/02 03:33:47;;;;;;;5.65;3.33;;;;;;;3.61;74.77;99351.63;5071073;28;20100;-64
2022/11/02 03:36:20;;;;;;;6.00;3.20;;;;;;;3.42;75.89;99326.00;5080144;28;20075;-66
2022/11/02 03:38:53;;;;;;;7.13;3.33;;;;;;;3.44;74.98;99349.88;5066710;28;20072;-65
2022/11/02 03:41:21;;;;;;;6.53;3.20;;;;;;;3.36;75.04;99318.28;5085005;28;20258;-65
2022/11/02 03:43:51;;;;;;;9.50;2.90;;;;;;;3.58;74.42;99347.34;5067018;28;20304;-66
2022/11/02 03:46:18;;;;;;;4.70;2.97;;;;;;;3.58;74.37;99341.38;5078978;28;20035;-66
2022/11/02 03:48:48;;;;;;;4.60;3.40;;;;;;;3.61;74.50;99339.66;5075873;28;20027;-66
2022/11/02 03:51:19;;;;;;;10.25;4.63;;;;;;;3.45;74.49;99322.59;5070137;28;20297;-64
2022/11/02 03:53:53;;;;;;;6.47;3.05;;;;;;;3.54;74.38;99327.72;5083842;28;20032;-65
2022/11/02 03:56:25;;;;;;;6.75;4.05;;;;;;;3.48;74.17;99335.41;5073899;28;20217;-66
2022/11/02 03:58:51;;;;;;;6.18;3.85;;;;;;;3.46;74.90;99337.09;5087853;28;20202;-65
2022/11/02 04:01:19;;;;;;;6.35;3.60;;;;;;;3.50;73.94;99340.53;5070748;28;20028;-67
2022/11/02 04:03:45;;;;;;;5.80;3.30;;;;;;;3.47;74.29;99349.03;5078449;28;20033;-66
2022/11/02 04:06:11;;;;;;;5.93;3.45;;;;;;;3.51;74.48;99348.19;5079750;28;20029;-66
2022/11/02 04:08:46;;;;;;;5.95;2.97;;;;;;;3.36;74.47;99335.38;5081981;28;20039;-67
2022/11/02 04:16:41;;;;;;;5.55;3.72;;;;;;;3.41;74.75;99349.03;5081055;28;20051;-65
2022/11/02 04:19:26;;;;;;;6.05;2.95;;;;;;;3.37;74.20;99329.41;5079893;28;20043;-65
2022/11/02 04:27:20;;;;;;;5.68;3.75;;;;;;;3.37;75.43;99344.75;5073521;28;20024;-66
2022/11/02 04:29:45;;;;;;;6.38;3.75;;;;;;;3.35;74.99;99347.31;5083222;28;20024;-65
2022/11/02 04:32:11;;;;;;;11.68;4.00;;;;;;;3.35;75.41;99338.75;5064161;28;20025;-65
2022/11/02 04:34:36;;;;;;;8.77;3.63;;;;;;;3.35;75.11;99338.75;5073554;28;20313;-65
2022/11/02 04:38:39;;;;;;;6.22;3.45;;;;;;;3.33;74.65;99340.47;5066720;28;20309;-66
2022/11/02 04:39:47;;;;;;;6.82;3.63;;;;;;;3.16;75.23;99333.59;5068654;28;20217;-66
2022/11/02 04:42:13;;;;;;;6.82;4.05;;;;;;;3.33;75.42;99341.31;5063758;28;20097;-65
2022/11/02 04:44:38;;;;;;;6.30;4.05;;;;;;;3.22;75.47;99341.31;5063853;28;20375;-65
2022/11/02 04:47:04;;;;;;;6.60;4.15;;;;;;;3.25;75.72;99336.19;5083767;28;20035;-66
2022/11/02 04:49:30;;;;;;;9.48;4.78;;;;;;;3.09;75.86;99327.63;5068880;28;20037;-65
2022/11/02 04:51:55;;;;;;;6.13;3.97;;;;;;;3.21;76.20;99333.63;5081549;28;20045;-65
2022/11/02 04:54:21;;;;;;;7.45;4.78;;;;;;;2.89;76.84;99330.13;5071088;28;20035;-65
2022/11/02 04:56:46;;;;;;;11.48;3.85;;;;;;;3.01;76.91;99329.31;5063222;28;20036;-65
2022/11/02 04:59:12;;;;;;;7.60;4.20;;;;;;;2.99;76.63;99338.66;5079706;28;20028;-66
2022/11/02 05:01:38;;;;;;;7.80;4.28;;;;;;;2.73;77.96;99334.31;5066651;28;20070;-65
2022/11/02 05:04:04;;;;;;;6.80;4.10;;;;;;;2.87;77.97;99321.56;5068243;28;20028;-66
2022/11/02 05:06:29;;;;;;;7.90;5.13;;;;;;;2.72;79.09;99327.50;5076460;28;20088;-66
2022/11/02 05:08:55;;;;;;;6.45;4.93;;;;;;;2.52;79.86;99322.28;5070304;28;20029;-67
2022/11/02 05:11:20;;;;;;;9.52;5.35;;;;;;;2.69;79.64;99321.50;5083435;28;20024;-65
2022/11/02 05:13:46;;;;;;;8.27;5.65;;;;;;;2.65;79.78;99333.44;5065839;28;20029;-64
2022/11/02 05:16:14;;;;;;;11.30;5.18;;;;;;;2.61;79.69;99338.50;5076238;28;20028;-66
2022/11/02 05:18:40;;;;;;;10.85;5.82;;;;;;;2.46;80.51;99332.47;5075094;28;20318;-65
2022/11/02 05:21:06;;;;;;;8.65;6.20;;;;;;;2.42;80.78;99328.19;5062925;28;20033;-66
2022/11/02 05:23:32;;;;;;;9.45;6.68;;;;;;;2.47;80.94;99336.72;5074522;28;20035;-67
2022/11/02 05:25:59;;;;;;;10.07;6.65;;;;;;;2.18;81.14;99334.88;5064170;28;20033;-66
2022/11/02 05:28:27;;;;;;;11.55;7.63;;;;;;;2.32;80.82;99328.97;5068613;28;20037;-66
2022/11/02 05:30:53;;;;;;;12.38;7.15;;;;;;;2.32;81.39;99340.03;5063220;28;20073;-68
2022/11/02 05:33:19;;;;;;;11.98;7.15;;;;;;;2.08;81.79;99340.72;5068011;28;20339;-64
2022/11/02 05:35:45;;;;;;;11.05;6.22;;;;;;;2.01;81.91;99341.53;5083074;28;20100;-64
2022/11/02 05:38:11;;;;;;;10.18;6.28;;;;;;;2.25;82.01;99343.41;5083099;28;20044;-65
2022/11/02 05:40:39;;;;;;;9.90;5.93;;;;;;;2.39;81.43;99343.50;5067650;28;20209;-66
2022/11/02 05:43:07;;;;;;;8.65;5.95;;;;;;;2.20;80.45;99328.06;5074582;28;20080;-66
2022/11/02 05:45:33;;;;;;;9.07;5.75;;;;;;;2.09;80.71;99337.34;5076289;28;20328;-66
2022/11/02 05:48:00;;;;;;;12.48;6.00;;;;;;;2.38;80.69;99339.22;5064729;28;20047;-66
2022/11/02 05:50:26;;;;;;;10.43;6.05;;;;;;;2.56;80.05;99341.88;5063302;28;20079;-65
2022/11/02 05:52:52;;;;;;;9.40;6.15;;;;;;;2.53;79.10;99343.59;5074040;28;20042;-68
2022/11/02 05:55:18;;;;;;;7.90;5.30;;;;;;;2.62;79.03;99335.94;5078082;28;20091;-66
2022/11/02 05:57:52;;;;;;;10.38;5.72;;;;;;;2.72;78.53;99347.06;5062999;28;20201;-66
2022/11/02 06:00:20;;;;;;;13.23;6.35;;;;;;;2.67;78.54;99348.78;5067006;28;20024;-67
2022/11/02 06:02:46;;;;;;;9.60;6.88;;;;;;;2.76;78.54;99338.56;5082743;28;20096;-66
2022/11/02 06:05:13;;;;;;;9.27;5.68;;;;;;;2.78;78.43;99339.47;5078939;28;20076;-66
2022/11/02 06:07:38;;;;;;;12.88;6.03;;;;;;;2.76;77.52;99313.00;5082615;28;20047;-65
2022/11/02 06:10:05;;;;;;;9.98;6.03;;;;;;;2.93;77.36;99330.97;5072080;28;20021;-65
2022/11/02 06:12:31;;;;;;;11.30;5.28;;;;;;;2.98;77.42;99323.31;5067876;28;20024;-65
2022/11/02 06:14:59;;;;;;;9.13;5.80;;;;;;;3.06;76.99;99331.88;5081360;28;20085;-66
2022/11/02 06:17:24;;;;;;;11.30;6.95;;;;;;;2.93;77.31;99328.41;5062969;28;20032;-65
2022/11/02 06:19:50;;;;;;;10.27;6.00;;;;;;;3.03;77.07;99325.03;5062666;28;20036;-65
2022/11/02 06:22:16;;;;;;;11.63;6.15;;;;;;;3.10;76.62;99334.44;5074296;28;20047;-66
2022/11/02 06:24:42;;;;;;;17.00;6.20;;;;;;;3.12;76.70;99331.88;5070400;28;20028;-66
2022/11/02 06:27:07;;;;;;;9.45;5.93;;;;;;;3.10;76.64;99323.38;5075269;28;20221;-65
2022/11/02 06:29:33;;;;;;;10.20;6.32;;;;;;;3.21;76.07;99331.94;5082225;28;20024;-65
2022/11/02 06:31:58;;;;;;;11.07;5.88;;;;;;;2.96;76.25;99337.81;5084831;28;20028;-67
2022/11/02 06:34:24;;;;;;;7.32;5.95;;;;;;;3.14;76.48;99342.16;5083888;28;20045;-66
2022/11/02 06:36:49;;;;;;;10.30;6.07;;;;;;;3.08;76.55;99338.72;5085599;28;20050;-67
2022/11/02 06:39:15;;;;;;;13.88;6.88;;;;;;;3.07;76.82;99334.44;5081194;28;20112;-66
2022/11/02 06:41:41;;;;;;;9.88;7.18;;;;;;;3.16;76.21;99330.19;5065493;28;20032;-66
2022/11/02 06:44:06;;;;;;;10.20;6.38;;;;;;;3.21;76.13;99336.19;5083444;28;20020;-66
2022/11/02 06:46:32;;;;;;;14.43;6.72;;;;;;;3.14;75.46;99337.03;5080891;28;20025;-65
2022/11/02 06:48:57;;;;;;;13.90;7.55;;;;;;;2.85;75.67;99328.41;5070699;28;20033;-66
2022/11/02 06:51:23;;;;;;;15.55;7.10;;;;;;;2.63;76.56;99331.72;5064598;28;20053;-67
2022/11/02 06:53:49;;;;;;;10.85;6.57;;;;;;;2.77;76.73;99332.63;5065391;28;20071;-66
2022/11/02 06:56:14;;;;;;;9.45;6.80;;;;;;;2.83;76.73;99335.19;5065105;28;20025;-65
2022/11/02 06:58:40;;;;;;;13.00;6.53;;;;;;;2.91;76.28;99332.69;5079224;28;20028;-66
2022/11/02 07:01:07;;;;;;;13.13;7.50;;;;;;;2.91;76.34;99332.69;5070972;28;20021;-65
2022/11/02 07:03:33;;;;;;;11.10;7.53;;;;;;;2.93;76.40;99334.38;5069977;28;20123;-65
2022/11/02 07:05:59;;;;;;;12.20;7.70;;;;;;;2.92;76.19;99334.38;5077350;28;20036;-65
2022/11/02 07:08:26;;;;;;;12.77;7.55;;;;;;;3.01;77.05;99334.44;5071406;28;20044;-64
2022/11/02 07:10:52;;;;;;;12.00;7.70;;;;;;;3.01;76.47;99338.69;5075457;28;20031;-66
2022/11/02 07:13:18;;;;;;;10.48;7.00;;;;;;;3.09;75.82;99349.78;5073864;28;20037;-65
2022/11/02 07:15:43;;;;;;;9.68;7.05;;;;;;;3.00;76.91;99337.81;5066794;28;20094;-66
2022/11/02 07:18:09;;;;;;;10.65;7.25;;;;;;;3.22;75.83;99343.88;5089789;28;20033;-66
2022/11/02 07:20:35;;;;;;;14.98;8.38;;;;;;;3.06;75.79;99352.34;5073287;28;20033;-65
2022/11/02 07:23:02;;;;;;;12.60;7.88;;;;;;;2.93;76.29;99352.28;5072909;28;20028;-65
2022/11/02 07:25:29;;;;;;;12.32;8.23;;;;;;;2.89;77.40;99350.59;5074489;28;20039;-65
2022/11/02 07:27:58;;;;;;;10.50;7.35;;;;;;;2.92;77.20;99352.28;5072415;28;20321;-65
2022/11/02 07:30:25;;;;;;;9.95;7.38;;;;;;;3.12;76.42;99357.47;5067842;28;20090;-64
2022/11/02 07:32:50;;;;;;;10.98;7.20;;;;;;;3.13;76.64;99353.22;5068558;28;20044;-64
2022/11/02 07:35:19;;;;;;;11.52;7.80;;;;;;;3.20;76.18;99360.91;5068454;28;20100;-64
2022/11/02 07:37:57;;;;;;;11.23;7.43;;;;;;;3.26;75.91;99350.72;5074608;28;20052;-64
2022/11/02 07:40:23;;;;;;;11.65;7.30;;;;;;;3.34;75.73;99360.13;5077081;28;20375;-64
2022/11/02 07:42:49;;;;;;;10.85;7.68;;;;;;;3.37;75.34;99360.13;5076922;28;20032;-64
2022/11/02 07:45:14;;;;;;;9.95;7.80;;;;;;;3.44;75.34;99364.41;5074362;28;20025;-64
2022/11/02 07:47:42;;;;;;;16.17;8.60;;;;;;;3.33;74.74;99369.47;5073633;28;20104;-64
2022/11/02 07:50:07;;;;;;;13.07;7.78;;;;;;;3.32;75.22;99370.34;5065691;28;20236;-64
2022/11/02 07:52:33;;;;;;;11.98;7.95;;;;;;;2.91;75.89;99394.06;5072825;28;20100;-63
2022/11/02 07:54:59;;;;;;;11.55;7.55;;;;;;;2.61;77.47;99375.16;5081204;28;20028;-64
2022/11/02 07:57:24;;;;;;;13.80;9.07;;;;;;;2.59;78.54;99376.84;5070090;28;20069;-64
2022/11/02 07:59:50;;;;;;;12.05;8.20;;;;;;;2.52;78.28;99377.66;5075237;28;20316;-64
2022/11/02 08:02:15;;;;;;;11.98;7.97;;;;;;;2.64;78.17;99375.19;5073525;28;20052;-64
2022/11/02 08:04:41;;;;;;;13.38;8.48;;;;;;;2.79;77.72;99369.28;5073513;28;20224;-65
2022/11/02 08:07:06;;;;;;;13.27;9.10;;;;;;;2.85;77.16;99355.66;5076298;28;20024;-66
2022/11/02 08:09:32;;;;;;;13.82;9.00;;;;;;;3.08;77.11;99366.00;5074602;28;20202;-63
2022/11/02 08:11:58;;;;;;;11.65;8.63;;;;;;;2.98;76.91;99362.56;5082442;28;20033;-63
2022/11/02 08:14:24;;;;;;;11.00;8.05;;;;;;;2.97;76.00;99367.66;5069772;28;20309;-64
2022/11/02 08:16:52;;;;;;;13.93;8.88;;;;;;;3.07;76.35;99356.63;5068104;28;20329;-65
2022/11/02 08:19:18;;;;;;;14.88;8.80;;;;;;;3.10;75.94;99359.19;5073609;28;20220;-66
2022/11/02 08:21:43;;;;;;;12.65;9.05;;;;;;;3.01;75.14;99343.81;5074683;28;20052;-67
2022/11/02 08:24:09;;;;;;;11.88;8.95;;;;;;;3.17;75.15;99360.91;5074248;28;20024;-66
2022/11/02 08:26:34;;;;;;;13.52;8.43;;;;;;;3.27;75.19;99354.97;5075663;28;20032;-66
2022/11/02 08:29:02;;;;;;;10.73;8.10;;;;;;;3.19;75.14;99354.09;5069334;28;20032;-64
2022/11/02 08:31:27;;;;;;;14.38;9.75;;;;;;;3.38;74.21;99357.56;5083902;28;20028;-64
2022/11/02 08:33:53;;;;;;;10.38;8.65;;;;;;;3.28;74.67;99355.84;5081636;28;20095;-64
2022/11/02 08:36:18;;;;;;;13.85;9.25;;;;;;;3.16;74.54;99354.06;5083171;28;20032;-65
2022/11/02 08:38:44;;;;;;;15.75;9.88;;;;;;;3.29;74.14;99360.09;5083536;28;20283;-66
2022/11/02 08:41:10;;;;;;;15.52;9.43;;;;;;;3.45;74.75;99353.31;5065813;28;20056;-68
2022/11/02 08:43:35;;;;;;;14.85;9.60;;;;;;;3.39;74.62;99363.53;5083661;28;20032;-66
2022/11/02 08:46:02;;;;;;;12.45;9.48;;;;;;;3.40;73.87;99362.69;5065120;28;20224;-63
2022/11/02 08:48:27;;;;;;;19.98;11.48;;;;;;;3.39;74.25;99361.84;5064586;28;20213;-62
2022/11/02 08:50:54;;;;;;;16.40;10.60;;;;;;;3.27;74.47;99354.97;5076483;28;20051;-64
2022/11/02 08:53:20;;;;;;;19.25;10.40;;;;;;;3.13;74.86;99355.78;5073191;28;20028;-64
2022/11/02 08:55:46;;;;;;;14.20;9.90;;;;;;;3.34;74.91;99357.56;5067676;28;20037;-65
2022/11/02 08:58:11;;;;;;;16.77;10.80;;;;;;;3.34;74.46;99362.69;5073868;28;20115;-65
2022/11/02 09:00:37;;;;;;;16.17;10.55;;;;;;;3.37;74.08;99367.78;5078132;28;20035;-65
2022/11/02 09:03:03;;;;;;;15.80;10.57;;;;;;;3.39;74.08;99360.97;5082680;28;20305;-65
2022/11/02 09:05:31;;;;;;;17.65;11.25;;;;;;;3.37;74.67;99347.31;5062389;28;20079;-63
2022/11/02 09:08:02;;;;;;;16.70;11.20;;;;;;;3.37;73.93;99353.28;5079501;28;20033;-63
2022/11/02 09:10:29;;;;;;;16.23;11.00;;;;;;;3.30;73.81;99358.41;5071444;28;20040;-64
2022/11/02 09:12:55;;;;;;;19.33;11.60;;;;;;;3.19;74.41;99358.34;5066593;28;20059;-63
2022/11/02 09:15:21;;;;;;;13.43;10.20;;;;;;;3.31;74.21;99355.84;5069819;28;20024;-63
2022/11/02 09:17:47;;;;;;;16.67;11.68;;;;;;;3.41;73.87;99360.13;5082876;28;20217;-64
2022/11/02 09:20:17;;;;;;;18.80;11.82;;;;;;;3.55;73.76;99360.16;5064419;28;20032;-62
2022/11/02 09:22:44;;;;;;;19.02;11.68;;;;;;;3.50;73.29;99364.41;5074242;28;20058;-63
2022/11/02 09:25:10;;;;;;;14.10;11.55;;;;;;;3.48;73.99;99355.00;5072897;28;20110;-63
2022/11/02 09:27:36;;;;;;;19.73;12.55;;;;;;;3.55;74.30;99365.28;5069050;28;20056;-63
2022/11/02 09:30:03;;;;;;;16.92;11.02;;;;;;;3.33;74.15;99358.41;5080429;28;20070;-64
2022/11/02 09:32:32;;;;;;;17.48;11.40;;;;;;;3.41;73.46;99343.91;5082070;28;20024;-64
2022/11/02 09:35:03;;;;;;;13.88;10.77;;;;;;;3.36;73.47;99354.13;5071632;28;20313;-64
2022/11/02 09:37:29;;;;;;;16.77;10.77;;;;;;;3.27;74.06;99354.97;5069241;28;20032;-64
2022/11/02 09:39:55;;;;;;;18.88;11.68;;;;;;;3.52;73.79;99344.78;5075698;28;20363;-63
2022/11/02 09:42:32;;;;;;;15.30;10.18;;;;;;;3.48;73.35;99345.63;5072994;28;20263;-63
2022/11/02 09:45:06;;;;;;;16.48;10.43;;;;;;;3.54;72.86;99350.75;5074938;28;20036;-62
2022/11/02 09:47:43;;;;;;;20.10;10.23;;;;;;;3.39;72.50;99327.69;5071252;28;20032;-64
2022/11/02 09:50:18;;;;;;;14.90;9.85;;;;;;;3.15;73.48;99331.91;5082503;28;20035;-64
2022/11/02 09:52:46;;;;;;;14.63;9.70;;;;;;;3.42;73.42;99322.56;5075315;28;20033;-63
2022/11/02 09:55:20;;;;;;;14.15;10.20;;;;;;;3.49;72.94;99328.56;5073813;28;20029;-63
2022/11/02 09:57:52;;;;;;;16.13;10.10;;;;;;;3.52;72.47;99326.00;5064816;28;20329;-63
2022/11/02 10:00:17;;;;;;;14.70;10.27;;;;;;;3.44;71.88;99323.44;5066306;28;20332;-63
2022/11/02 10:03:07;;;;;;;12.82;9.73;;;;;;;3.26;72.41;99350.72;5062779;28;20033;-63
2022/11/02 10:05:45;;;;;;;16.10;10.55;;;;;;;3.34;72.19;99322.56;5063875;28;20024;-63
2022/11/02 10:08:27;;;;;;;14.25;10.85;;;;;;;3.35;72.17;99333.66;5076582;28;20341;-64
2022/11/02 10:11:11;;;;;;;13.70;10.05;;;;;;;3.56;71.95;99343.94;5078665;28;20024;-64
2022/11/02 10:13:59;;;;;;;13.68;9.23;;;;;;;3.60;71.36;99330.28;5075666;28;20029;-63
2022/11/02 10:16:37;;;;;;;13.48;9.25;;;;;;;3.48;71.48;99332.84;5076684;28;20032;-64
2022/11/02 10:19:11;;;;;;;18.42;9.85;;;;;;;3.36;70.49;99327.69;5071010;28;20029;-64
2022/11/02 10:21:38;;;;;;;15.43;9.48;;;;;;;3.16;70.95;99305.47;5080346;28;20108;-64
2022/11/02 10:24:27;;;;;;;15.20;9.77;;;;;;;3.63;70.27;99363.59;5066733;28;20044;-64
2022/11/02 10:26:59;;;;;;;12.85;9.07;;;;;;;3.33;70.34;99363.50;5086453;28;20051;-65
2022/11/02 10:29:44;;;;;;;18.40;10.43;;;;;;;3.43;70.63;99355.00;5066136;28;20313;-65
2022/11/02 10:32:12;;;;;;;13.32;8.65;;;;;;;3.25;70.87;99350.69;5082349;28;20040;-64
2022/11/02 10:34:39;;;;;;;16.27;8.75;;;;;;;3.28;70.76;99358.41;5072386;28;20036;-65
2022/11/02 10:37:23;;;;;;;17.73;9.05;;;;;;;3.24;70.18;99354.97;5074830;28;20302;-64
2022/11/02 10:40:00;;;;;;;14.00;8.85;;;;;;;3.27;70.56;99359.22;5079235;28;20041;-64
2022/11/02 10:42:55;;;;;;;12.68;7.93;;;;;;;3.48;70.41;99355.88;5065723;28;20036;-64
2022/11/02 10:45:46;;;;;;;15.88;9.00;;;;;;;3.19;70.01;99356.66;5070327;28;20039;-64
2022/11/02 10:48:32;;;;;;;13.05;8.32;;;;;;;3.28;70.20;99364.34;5067035;28;20124;-63
2022/11/02 10:51:13;;;;;;;12.60;8.00;;;;;;;3.28;69.87;99359.25;5085829;28;20040;-65
2022/11/02 10:53:46;;;;;;;15.02;8.63;;;;;;;3.47;69.60;99366.97;5085677;28;20036;-64
2022/11/02 10:56:27;;;;;;;13.23;8.35;;;;;;;3.52;70.38;99349.03;5067810;28;20033;-64
2022/11/02 10:58:59;;;;;;;11.77;7.50;;;;;;;3.59;69.64;99359.31;5065505;28;20051;-64
2022/11/02 11:01:26;;;;;;;10.10;7.18;;;;;;;3.46;68.85;99362.69;5065466;28;20080;-64
2022/11/02 11:04:17;;;;;;;11.18;8.23;;;;;;;3.19;68.59;99346.44;5071767;28;20033;-65
2022/11/02 11:06:43;;;;;;;12.70;7.70;;;;;;;3.32;68.45;99369.47;5080148;28;20029;-65
2022/11/02 11:09:31;;;;;;;8.95;6.85;;;;;;;3.46;68.59;99367.81;5065564;28;20043;-64
2022/11/02 11:12:12;;;;;;;10.27;7.22;;;;;;;3.42;68.51;99360.97;5065091;28;20132;-64
2022/11/02 11:14:56;;;;;;;9.50;6.60;;;;;;;3.41;68.10;99349.03;5065070;28;20029;-65
2022/11/02 11:17:37;;;;;;;10.30;7.35;;;;;;;3.47;67.97;99346.47;5083465;28;20039;-64
2022/11/02 11:20:06;;;;;;;8.95;6.75;;;;;;;3.50;67.94;99341.38;5085019;28;20321;-64
2022/11/02 11:22:37;;;;;;;9.85;6.90;;;;;;;3.14;68.70;99349.81;5076512;28;20293;-64
2022/11/02 11:25:11;;;;;;;9.00;6.22;;;;;;;3.44;68.24;99354.16;5077159;28;20033;-64
2022/11/02 11:27:46;;;;;;;10.98;7.10;;;;;;;3.54;67.56;99361.00;5064685;28;20088;-64
2022/11/02 11:30:34;;;;;;;11.00;6.35;;;;;;;3.59;67.59;99349.06;5065139;28;20102;-64
2022/11/02 11:33:02;;;;;;;8.35;6.35;;;;;;;3.80;68.42;99360.19;5065297;28;20352;-64
2022/11/02 11:35:34;;;;;;;15.88;7.28;;;;;;;3.79;67.16;99349.09;5083414;28;20244;-65
2022/11/02 11:38:05;;;;;;;11.50;7.63;;;;;;;3.80;67.86;99343.13;5068411;28;20060;-63
2022/11/02 11:40:37;;;;;;;9.00;7.17;;;;;;;3.84;67.63;99343.97;5076407;28;20397;-65
2022/11/02 11:43:09;;;;;;;15.70;7.30;;;;;;;3.78;67.75;99342.25;5078054;28;20040;-64
2022/11/02 11:45:35;;;;;;;10.05;6.55;;;;;;;3.81;68.03;99349.09;5077339;28;20317;-64
2022/11/02 11:48:06;;;;;;;9.73;6.78;;;;;;;3.76;68.69;99361.91;5077020;28;20053;-64
2022/11/02 11:50:32;;;;;;;13.90;7.60;;;;;;;3.87;67.45;99361.03;5070039;28;20174;-63
2022/11/02 11:53:21;;;;;;;11.80;6.97;;;;;;;3.86;68.76;99357.59;5067581;28;20096;-64
2022/11/02 11:55:52;;;;;;;10.43;7.38;;;;;;;3.70;67.94;99349.06;5069025;28;20042;-64
2022/11/02 11:58:20;;;;;;;14.45;6.95;;;;;;;3.76;68.51;99371.25;5084587;28;20073;-63
2022/11/02 12:01:03;;;;;;;7.97;6.00;;;;;;;3.41;68.30;99349.88;5072342;28;20085;-62